sensor_id;sensor_type;location;lat;lon;timestamp;temperature;humidity
24091;DHT22;12272;52.426;17.100;2023-02-01T00:03:38;11.40;94.80
24091;DHT22;12272;52.426;17.100;2023-02-01T00:08:40;11.20;93.70
24091;DHT22;12272;52.426;17.100;2023-02-01T00:13:43;10.10;95.90
24091;DHT22;12272;52.426;17.100;2023-02-01T00:18:47;10.90;95.50
24091;DHT22;12272;52.426;17.100;2023-02-01T00:23:50;10.40;95.40
24091;DHT22;12272;52.426;17.100;2023-02-01T00:28:53;10.70;96.40
24091;DHT22;12272;52.426;17.100;2023-02-01T00:33:55;10.60;97.20
24091;DHT22;12272;52.426;17.100;2023-02-01T00:38:58;9.50;91.70
24091;DHT22;12272;52.426;17.100;2023-02-01T00:44:01;10.60;97.80
24091;DHT22;12272;52.426;17.100;2023-02-01T00:49:04;10.50;97.10
24091;DHT22;12272;52.426;17.100;2023-02-01T00:54:09;10.50;95.10
24091;DHT22;12272;52.426;17.100;2023-02-01T00:59:12;11.00;95.00
24091;DHT22;12272;52.426;17.100;2023-02-01T01:04:14;10.90;93.70
24091;DHT22;12272;52.426;17.100;2023-02-01T01:09:17;10.50;95.80
24091;DHT22;12272;52.426;17.100;2023-02-01T01:14:19;11.10;93.90
24091;DHT22;12272;52.426;17.100;2023-02-01T01:19:22;11.90;94.80
24091;DHT22;12272;52.426;17.100;2023-02-01T01:24:25;11.60;95.70
24091;DHT22;12272;52.426;17.100;2023-02-01T01:29:27;11.70;92.50
24091;DHT22;12272;52.426;17.100;2023-02-01T01:34:30;11.60;88.20
24091;DHT22;12272;52.426;17.100;2023-02-01T01:39:32;11.90;93.90
24091;DHT22;12272;52.426;17.100;2023-02-01T01:45:04;12.00;93.00
24091;DHT22;12272;52.426;17.100;2023-02-01T01:50:12;11.10;92.00
24091;DHT22;12272;52.426;17.100;2023-02-01T01:55:17;11.60;88.40
24091;DHT22;12272;52.426;17.100;2023-02-01T02:00:20;11.80;93.20
24091;DHT22;12272;52.426;17.100;2023-02-01T02:05:27;11.90;94.70
24091;DHT22;12272;52.426;17.100;2023-02-01T02:10:31;11.50;92.40
24091;DHT22;12272;52.426;17.100;2023-02-01T02:33:28;11.60;85.10
24091;DHT22;12272;52.426;17.100;2023-02-01T02:43:44;11.80;83.70
24091;DHT22;12272;52.426;17.100;2023-02-01T02:49:19;11.50;88.40
24091;DHT22;12272;52.426;17.100;2023-02-01T02:54:25;12.40;91.40
24091;DHT22;12272;52.426;17.100;2023-02-01T02:59:50;12.20;89.50
24091;DHT22;12272;52.426;17.100;2023-02-01T03:05:12;11.90;86.90
24091;DHT22;12272;52.426;17.100;2023-02-01T03:10:27;11.60;85.90
24091;DHT22;12272;52.426;17.100;2023-02-01T03:21:01;11.70;90.20
24091;DHT22;12272;52.426;17.100;2023-02-01T03:26:10;11.90;87.60
24091;DHT22;12272;52.426;17.100;2023-02-01T03:31:13;12.00;88.90
24091;DHT22;12272;52.426;17.100;2023-02-01T03:41:46;12.10;87.80
24091;DHT22;12272;52.426;17.100;2023-02-01T03:47:21;12.40;84.90
24091;DHT22;12272;52.426;17.100;2023-02-01T03:52:42;11.70;89.50
24091;DHT22;12272;52.426;17.100;2023-02-01T03:58:05;11.70;91.30
24091;DHT22;12272;52.426;17.100;2023-02-01T04:03:09;12.40;89.40
24091;DHT22;12272;52.426;17.100;2023-02-01T04:08:12;12.80;86.50
24091;DHT22;12272;52.426;17.100;2023-02-01T04:13:14;12.20;78.10
24091;DHT22;12272;52.426;17.100;2023-02-01T04:18:17;12.30;90.30
24091;DHT22;12272;52.426;17.100;2023-02-01T04:23:19;12.90;77.30
24091;DHT22;12272;52.426;17.100;2023-02-01T04:28:22;12.20;80.70
24091;DHT22;12272;52.426;17.100;2023-02-01T04:33:25;12.40;88.50
24091;DHT22;12272;52.426;17.100;2023-02-01T04:38:27;12.10;87.70
24091;DHT22;12272;52.426;17.100;2023-02-01T04:43:31;12.10;90.30
24091;DHT22;12272;52.426;17.100;2023-02-01T04:48:34;12.00;87.90
24091;DHT22;12272;52.426;17.100;2023-02-01T04:53:36;12.10;85.00
24091;DHT22;12272;52.426;17.100;2023-02-01T04:58:39;12.10;87.70
24091;DHT22;12272;52.426;17.100;2023-02-01T05:03:41;12.60;84.70
24091;DHT22;12272;52.426;17.100;2023-02-01T05:08:44;12.60;86.20
24091;DHT22;12272;52.426;17.100;2023-02-01T05:13:46;12.50;78.80
24091;DHT22;12272;52.426;17.100;2023-02-01T05:18:52;12.20;80.50
24091;DHT22;12272;52.426;17.100;2023-02-01T05:23:55;12.20;86.50
24091;DHT22;12272;52.426;17.100;2023-02-01T05:29:16;12.50;82.80
24091;DHT22;12272;52.426;17.100;2023-02-01T05:34:19;12.60;81.80
24091;DHT22;12272;52.426;17.100;2023-02-01T05:39:21;12.50;84.50
24091;DHT22;12272;52.426;17.100;2023-02-01T05:44:24;12.70;82.80
24091;DHT22;12272;52.426;17.100;2023-02-01T05:49:26;12.40;82.00
24091;DHT22;12272;52.426;17.100;2023-02-01T05:54:29;12.80;79.10
24091;DHT22;12272;52.426;17.100;2023-02-01T05:59:31;12.30;71.70
24091;DHT22;12272;52.426;17.100;2023-02-01T06:04:34;12.40;81.20
24091;DHT22;12272;52.426;17.100;2023-02-01T06:09:37;12.70;78.90
24091;DHT22;12272;52.426;17.100;2023-02-01T06:14:39;12.60;81.00
24091;DHT22;12272;52.426;17.100;2023-02-01T06:19:42;12.50;80.40
24091;DHT22;12272;52.426;17.100;2023-02-01T06:24:46;12.40;77.10
24091;DHT22;12272;52.426;17.100;2023-02-01T06:29:48;12.40;83.50
24091;DHT22;12272;52.426;17.100;2023-02-01T06:34:51;12.60;83.40
24091;DHT22;12272;52.426;17.100;2023-02-01T06:39:57;12.50;80.60
24091;DHT22;12272;52.426;17.100;2023-02-01T06:45:00;12.80;78.20
24091;DHT22;12272;52.426;17.100;2023-02-01T06:50:03;12.80;80.00
24091;DHT22;12272;52.426;17.100;2023-02-01T06:55:06;12.50;79.80
24091;DHT22;12272;52.426;17.100;2023-02-01T07:00:09;12.60;79.40
24091;DHT22;12272;52.426;17.100;2023-02-01T07:05:12;13.00;79.10
24091;DHT22;12272;52.426;17.100;2023-02-01T07:10:15;13.00;80.70
24091;DHT22;12272;52.426;17.100;2023-02-01T07:15:17;12.80;73.80
24091;DHT22;12272;52.426;17.100;2023-02-01T07:20:20;12.90;75.90
24091;DHT22;12272;52.426;17.100;2023-02-01T07:25:24;12.60;78.20
24091;DHT22;12272;52.426;17.100;2023-02-01T07:30:27;12.80;82.70
24091;DHT22;12272;52.426;17.100;2023-02-01T07:35:30;13.10;78.90
24091;DHT22;12272;52.426;17.100;2023-02-01T07:40:32;13.30;78.50
24091;DHT22;12272;52.426;17.100;2023-02-01T07:45:35;13.50;77.70
24091;DHT22;12272;52.426;17.100;2023-02-01T07:50:38;13.20;76.20
24091;DHT22;12272;52.426;17.100;2023-02-01T07:55:41;13.60;78.20
24091;DHT22;12272;52.426;17.100;2023-02-01T08:00:43;13.50;78.00
24091;DHT22;12272;52.426;17.100;2023-02-01T08:06:06;13.50;74.20
24091;DHT22;12272;52.426;17.100;2023-02-01T08:11:09;13.30;77.70
24091;DHT22;12272;52.426;17.100;2023-02-01T08:16:13;13.40;75.50
24091;DHT22;12272;52.426;17.100;2023-02-01T08:21:19;13.40;76.20
24091;DHT22;12272;52.426;17.100;2023-02-01T08:26:25;13.10;77.90
24091;DHT22;12272;52.426;17.100;2023-02-01T08:31:29;13.50;77.70
24091;DHT22;12272;52.426;17.100;2023-02-01T08:36:32;13.50;76.70
24091;DHT22;12272;52.426;17.100;2023-02-01T08:41:36;13.10;76.70
24091;DHT22;12272;52.426;17.100;2023-02-01T08:46:39;13.20;74.30
24091;DHT22;12272;52.426;17.100;2023-02-01T08:51:41;13.20;75.80
24091;DHT22;12272;52.426;17.100;2023-02-01T08:56:44;13.20;73.70
24091;DHT22;12272;52.426;17.100;2023-02-01T09:01:47;13.10;76.80
24091;DHT22;12272;52.426;17.100;2023-02-01T09:06:49;13.30;77.20
24091;DHT22;12272;52.426;17.100;2023-02-01T09:11:52;13.40;74.50
24091;DHT22;12272;52.426;17.100;2023-02-01T09:16:54;13.20;76.70
24091;DHT22;12272;52.426;17.100;2023-02-01T09:21:57;13.40;75.60
24091;DHT22;12272;52.426;17.100;2023-02-01T09:27:00;13.50;73.60
24091;DHT22;12272;52.426;17.100;2023-02-01T09:32:02;13.20;75.60
24091;DHT22;12272;52.426;17.100;2023-02-01T09:37:06;13.00;74.90
24091;DHT22;12272;52.426;17.100;2023-02-01T09:48:13;13.50;75.90
24091;DHT22;12272;52.426;17.100;2023-02-01T09:53:38;13.40;75.50
24091;DHT22;12272;52.426;17.100;2023-02-01T09:58:46;13.50;73.30
24091;DHT22;12272;52.426;17.100;2023-02-01T10:03:54;13.40;76.10
24091;DHT22;12272;52.426;17.100;2023-02-01T10:20:01;13.20;77.40
24091;DHT22;12272;52.426;17.100;2023-02-01T10:30:19;12.90;80.60
24091;DHT22;12272;52.426;17.100;2023-02-01T10:35:33;13.10;80.20
24091;DHT22;12272;52.426;17.100;2023-02-01T10:40:38;12.60;82.70
24091;DHT22;12272;52.426;17.100;2023-02-01T10:45:42;12.70;80.60
24091;DHT22;12272;52.426;17.100;2023-02-01T10:50:54;12.80;79.00
24091;DHT22;12272;52.426;17.100;2023-02-01T10:56:06;13.00;81.40
24091;DHT22;12272;52.426;17.100;2023-02-01T11:06:33;13.30;81.00
24091;DHT22;12272;52.426;17.100;2023-02-01T11:16:58;13.10;82.30
24091;DHT22;12272;52.426;17.100;2023-02-01T11:22:03;13.00;81.80
24091;DHT22;12272;52.426;17.100;2023-02-01T11:27:14;13.10;82.90
24091;DHT22;12272;52.426;17.100;2023-02-01T11:32:28;13.20;80.60
24091;DHT22;12272;52.426;17.100;2023-02-01T11:37:35;12.90;80.50
24091;DHT22;12272;52.426;17.100;2023-02-01T11:47:58;12.50;85.00
24091;DHT22;12272;52.426;17.100;2023-02-01T12:09:12;12.80;84.00
24091;DHT22;12272;52.426;17.100;2023-02-01T12:46:31;12.60;84.40
24091;DHT22;12272;52.426;17.100;2023-02-01T12:51:38;12.80;84.10
24091;DHT22;12272;52.426;17.100;2023-02-01T12:56:48;12.90;82.20
24091;DHT22;12272;52.426;17.100;2023-02-01T13:07:23;12.30;88.60
24091;DHT22;12272;52.426;17.100;2023-02-01T13:12:54;12.90;83.60
24091;DHT22;12272;52.426;17.100;2023-02-01T13:18:03;13.30;82.90
24091;DHT22;12272;52.426;17.100;2023-02-01T13:29:01;13.30;78.30
24091;DHT22;12272;52.426;17.100;2023-02-01T13:45:24;13.10;83.70
24091;DHT22;12272;52.426;17.100;2023-02-01T13:50:38;12.80;78.50
24091;DHT22;12272;52.426;17.100;2023-02-01T13:55:50;12.80;83.90
24091;DHT22;12272;52.426;17.100;2023-02-01T14:11:49;12.90;82.40
24091;DHT22;12272;52.426;17.100;2023-02-01T14:21:57;12.80;81.50
24091;DHT22;12272;52.426;17.100;2023-02-01T14:27:17;12.60;79.20
24091;DHT22;12272;52.426;17.100;2023-02-01T14:32:31;12.60;82.60
24091;DHT22;12272;52.426;17.100;2023-02-01T14:37:37;12.60;83.80
24091;DHT22;12272;52.426;17.100;2023-02-01T14:42:46;12.90;81.30
24091;DHT22;12272;52.426;17.100;2023-02-01T14:58:36;12.40;79.00
24091;DHT22;12272;52.426;17.100;2023-02-01T15:09:17;12.50;83.00
24091;DHT22;12272;52.426;17.100;2023-02-01T15:14:20;12.30;82.60
24091;DHT22;12272;52.426;17.100;2023-02-01T15:19:28;12.40;82.70
24091;DHT22;12272;52.426;17.100;2023-02-01T15:24:31;12.50;82.50
24091;DHT22;12272;52.426;17.100;2023-02-01T15:29:33;12.40;84.50
24091;DHT22;12272;52.426;17.100;2023-02-01T15:34:47;12.00;83.30
24091;DHT22;12272;52.426;17.100;2023-02-01T15:45:19;12.30;86.20
24091;DHT22;12272;52.426;17.100;2023-02-01T15:50:22;12.50;82.50
24091;DHT22;12272;52.426;17.100;2023-02-01T15:55:38;12.30;83.30
24091;DHT22;12272;52.426;17.100;2023-02-01T16:00:50;12.30;85.40
24091;DHT22;12272;52.426;17.100;2023-02-01T16:05:59;12.60;86.10
24091;DHT22;12272;52.426;17.100;2023-02-01T16:16:28;13.00;83.30
24091;DHT22;12272;52.426;17.100;2023-02-01T16:21:31;13.40;81.10
24091;DHT22;12272;52.426;17.100;2023-02-01T16:26:34;12.90;77.40
24091;DHT22;12272;52.426;17.100;2023-02-01T16:31:38;13.10;81.80
24091;DHT22;12272;52.426;17.100;2023-02-01T16:36:41;13.00;78.70
24091;DHT22;12272;52.426;17.100;2023-02-01T16:41:44;12.40;79.40
24091;DHT22;12272;52.426;17.100;2023-02-01T16:46:50;12.70;78.80
24091;DHT22;12272;52.426;17.100;2023-02-01T16:51:56;12.70;82.50
24091;DHT22;12272;52.426;17.100;2023-02-01T16:56:59;12.50;86.40
24091;DHT22;12272;52.426;17.100;2023-02-01T17:02:02;12.10;85.40
24091;DHT22;12272;52.426;17.100;2023-02-01T17:07:05;12.40;86.80
24091;DHT22;12272;52.426;17.100;2023-02-01T17:12:26;12.20;82.80
24091;DHT22;12272;52.426;17.100;2023-02-01T17:17:33;12.20;82.10
24091;DHT22;12272;52.426;17.100;2023-02-01T17:22:40;12.30;83.10
24091;DHT22;12272;52.426;17.100;2023-02-01T17:27:42;12.60;83.90
24091;DHT22;12272;52.426;17.100;2023-02-01T17:32:46;12.90;80.50
24091;DHT22;12272;52.426;17.100;2023-02-01T17:37:50;13.00;82.20
24091;DHT22;12272;52.426;17.100;2023-02-01T17:42:53;12.60;84.40
24091;DHT22;12272;52.426;17.100;2023-02-01T17:47:59;13.00;83.30
24091;DHT22;12272;52.426;17.100;2023-02-01T17:53:02;12.40;83.40
24091;DHT22;12272;52.426;17.100;2023-02-01T17:58:05;12.30;83.20
24091;DHT22;12272;52.426;17.100;2023-02-01T18:08:26;11.70;89.20
24091;DHT22;12272;52.426;17.100;2023-02-01T18:13:30;11.50;90.70
24091;DHT22;12272;52.426;17.100;2023-02-01T18:18:34;11.80;91.30
24091;DHT22;12272;52.426;17.100;2023-02-01T18:23:39;12.40;85.80
24091;DHT22;12272;52.426;17.100;2023-02-01T18:28:42;11.90;90.20
24091;DHT22;12272;52.426;17.100;2023-02-01T18:33:45;12.00;90.60
24091;DHT22;12272;52.426;17.100;2023-02-01T18:38:48;12.30;90.00
24091;DHT22;12272;52.426;17.100;2023-02-01T18:43:51;12.10;90.10
24091;DHT22;12272;52.426;17.100;2023-02-01T18:48:54;12.10;86.30
24091;DHT22;12272;52.426;17.100;2023-02-01T18:53:56;11.90;86.60
24091;DHT22;12272;52.426;17.100;2023-02-01T18:58:59;12.00;90.80
24091;DHT22;12272;52.426;17.100;2023-02-01T19:04:01;11.90;90.70
24091;DHT22;12272;52.426;17.100;2023-02-01T19:09:16;12.00;86.80
24091;DHT22;12272;52.426;17.100;2023-02-01T19:14:18;12.00;88.80
24091;DHT22;12272;52.426;17.100;2023-02-01T19:19:21;11.70;89.10
24091;DHT22;12272;52.426;17.100;2023-02-01T19:24:24;11.20;90.20
24091;DHT22;12272;52.426;17.100;2023-02-01T19:29:29;11.40;91.30
24091;DHT22;12272;52.426;17.100;2023-02-01T19:34:32;11.60;91.50
24091;DHT22;12272;52.426;17.100;2023-02-01T19:39:36;11.80;89.30
24091;DHT22;12272;52.426;17.100;2023-02-01T19:44:43;12.20;91.70
24091;DHT22;12272;52.426;17.100;2023-02-01T19:49:45;12.30;90.50
24091;DHT22;12272;52.426;17.100;2023-02-01T19:54:48;12.60;80.90
24091;DHT22;12272;52.426;17.100;2023-02-01T19:59:50;12.40;88.50
24091;DHT22;12272;52.426;17.100;2023-02-01T20:04:53;12.60;86.50
24091;DHT22;12272;52.426;17.100;2023-02-01T20:09:56;12.20;90.30
24091;DHT22;12272;52.426;17.100;2023-02-01T20:14:59;11.20;93.30
24091;DHT22;12272;52.426;17.100;2023-02-01T20:20:03;11.40;92.40
24091;DHT22;12272;52.426;17.100;2023-02-01T20:25:07;11.50;91.50
24091;DHT22;12272;52.426;17.100;2023-02-01T20:30:14;11.00;90.40
24091;DHT22;12272;52.426;17.100;2023-02-01T20:35:21;11.10;93.60
24091;DHT22;12272;52.426;17.100;2023-02-01T20:40:25;10.70;90.60
24091;DHT22;12272;52.426;17.100;2023-02-01T20:45:28;11.40;95.10
24091;DHT22;12272;52.426;17.100;2023-02-01T20:50:31;11.90;90.40
24091;DHT22;12272;52.426;17.100;2023-02-01T20:55:34;11.70;90.10
24091;DHT22;12272;52.426;17.100;2023-02-01T21:00:37;11.60;88.20
24091;DHT22;12272;52.426;17.100;2023-02-01T21:05:48;11.70;93.40
24091;DHT22;12272;52.426;17.100;2023-02-01T21:15:58;11.30;92.80
24091;DHT22;12272;52.426;17.100;2023-02-01T21:21:10;11.80;93.00
24091;DHT22;12272;52.426;17.100;2023-02-01T21:26:19;12.00;92.30
24091;DHT22;12272;52.426;17.100;2023-02-01T21:31:24;12.40;91.50
24091;DHT22;12272;52.426;17.100;2023-02-01T21:36:27;12.50;90.60
24091;DHT22;12272;52.426;17.100;2023-02-01T21:41:34;12.50;90.40
24091;DHT22;12272;52.426;17.100;2023-02-01T21:46:55;12.50;88.20
24091;DHT22;12272;52.426;17.100;2023-02-01T21:51:58;12.10;92.20
24091;DHT22;12272;52.426;17.100;2023-02-01T21:57:01;12.30;90.20
24091;DHT22;12272;52.426;17.100;2023-02-01T22:02:04;12.80;87.90
24091;DHT22;12272;52.426;17.100;2023-02-01T22:07:08;12.30;90.00
24091;DHT22;12272;52.426;17.100;2023-02-01T22:12:12;11.90;91.70
24091;DHT22;12272;52.426;17.100;2023-02-01T22:17:14;11.70;90.50
24091;DHT22;12272;52.426;17.100;2023-02-01T22:22:17;12.50;91.10
24091;DHT22;12272;52.426;17.100;2023-02-01T22:27:19;12.70;87.30
24091;DHT22;12272;52.426;17.100;2023-02-01T22:32:34;12.50;90.60
24091;DHT22;12272;52.426;17.100;2023-02-01T22:37:36;12.20;90.00
24091;DHT22;12272;52.426;17.100;2023-02-01T22:42:39;12.60;87.80
24091;DHT22;12272;52.426;17.100;2023-02-01T22:47:41;12.70;86.90
24091;DHT22;12272;52.426;17.100;2023-02-01T22:52:44;12.20;90.00
24091;DHT22;12272;52.426;17.100;2023-02-01T22:57:46;12.40;90.40
24091;DHT22;12272;52.426;17.100;2023-02-01T23:02:50;12.00;91.00
24091;DHT22;12272;52.426;17.100;2023-02-01T23:07:53;12.20;89.40
24091;DHT22;12272;52.426;17.100;2023-02-01T23:12:55;12.30;89.10
24091;DHT22;12272;52.426;17.100;2023-02-01T23:17:58;12.00;90.30
24091;DHT22;12272;52.426;17.100;2023-02-01T23:23:00;12.20;90.80
24091;DHT22;12272;52.426;17.100;2023-02-01T23:28:03;12.40;90.40
24091;DHT22;12272;52.426;17.100;2023-02-01T23:33:05;12.80;90.40
24091;DHT22;12272;52.426;17.100;2023-02-01T23:38:08;12.60;88.70
24091;DHT22;12272;52.426;17.100;2023-02-01T23:43:10;12.40;89.00
24091;DHT22;12272;52.426;17.100;2023-02-01T23:48:31;12.10;88.60
24091;DHT22;12272;52.426;17.100;2023-02-01T23:53:34;12.80;87.30
24091;DHT22;12272;52.426;17.100;2023-02-01T23:58:37;12.50;86.30
